sensor_id;sensor_type;location;lat;lon;timestamp;temperature;humidity
37874;DHT22;23709;48.078;11.684;2023-11-19T00:00:40;4.60;99.90
37874;DHT22;23709;48.078;11.684;2023-11-19T00:03:23;4.70;99.90
37874;DHT22;23709;48.078;11.684;2023-11-19T00:05:56;4.70;99.90
37874;DHT22;23709;48.078;11.684;2023-11-19T00:08:28;4.60;99.90
37874;DHT22;23709;48.078;11.684;2023-11-19T00:11:00;4.60;99.90
37874;DHT22;23709;48.078;11.684;2023-11-19T00:13:33;4.60;99.90
37874;DHT22;23709;48.078;11.684;2023-11-19T00:16:06;4.70;99.90
37874;DHT22;23709;48.078;11.684;2023-11-19T00:18:40;4.70;99.90
37874;DHT22;23709;48.078;11.684;2023-11-19T00:21:13;4.60;99.90
37874;DHT22;23709;48.078;11.684;2023-11-19T00:23:45;4.70;99.90
37874;DHT22;23709;48.078;11.684;2023-11-19T00:26:17;4.70;99.90
37874;DHT22;23709;48.078;11.684;2023-11-19T00:28:54;4.70;99.90
37874;DHT22;23709;48.078;11.684;2023-11-19T00:31:28;4.70;99.90
37874;DHT22;23709;48.078;11.684;2023-11-19T00:34:01;4.70;99.90
37874;DHT22;23709;48.078;11.684;2023-11-19T00:36:34;4.70;99.90
37874;DHT22;23709;48.078;11.684;2023-11-19T00:39:07;4.70;99.90
37874;DHT22;23709;48.078;11.684;2023-11-19T00:41:39;4.80;99.90
37874;DHT22;23709;48.078;11.684;2023-11-19T00:44:12;4.80;99.90
37874;DHT22;23709;48.078;11.684;2023-11-19T00:46:44;4.90;99.90
37874;DHT22;23709;48.078;11.684;2023-11-19T00:49:17;4.90;99.90
37874;DHT22;23709;48.078;11.684;2023-11-19T00:51:49;5.00;99.90
37874;DHT22;23709;48.078;11.684;2023-11-19T00:54:22;5.00;99.90
37874;DHT22;23709;48.078;11.684;2023-11-19T00:56:57;5.10;99.90
37874;DHT22;23709;48.078;11.684;2023-11-19T00:59:30;5.10;99.90
37874;DHT22;23709;48.078;11.684;2023-11-19T01:02:02;5.10;99.90
37874;DHT22;23709;48.078;11.684;2023-11-19T01:04:36;5.20;99.90
37874;DHT22;23709;48.078;11.684;2023-11-19T01:07:09;5.20;99.90
37874;DHT22;23709;48.078;11.684;2023-11-19T01:09:45;5.30;99.90
37874;DHT22;23709;48.078;11.684;2023-11-19T01:12:18;5.20;99.90
37874;DHT22;23709;48.078;11.684;2023-11-19T01:14:51;5.30;99.90
37874;DHT22;23709;48.078;11.684;2023-11-19T01:17:23;5.30;99.90
37874;DHT22;23709;48.078;11.684;2023-11-19T01:19:55;5.40;99.90
37874;DHT22;23709;48.078;11.684;2023-11-19T01:22:27;5.40;99.90
37874;DHT22;23709;48.078;11.684;2023-11-19T01:25:00;5.30;99.90
37874;DHT22;23709;48.078;11.684;2023-11-19T01:27:33;5.40;99.90
37874;DHT22;23709;48.078;11.684;2023-11-19T01:30:09;5.40;99.90
37874;DHT22;23709;48.078;11.684;2023-11-19T01:32:45;5.40;99.90
37874;DHT22;23709;48.078;11.684;2023-11-19T01:35:17;5.50;99.90
37874;DHT22;23709;48.078;11.684;2023-11-19T01:37:49;5.50;99.90
37874;DHT22;23709;48.078;11.684;2023-11-19T01:40:22;5.50;99.90
37874;DHT22;23709;48.078;11.684;2023-11-19T01:42:55;5.60;99.90
37874;DHT22;23709;48.078;11.684;2023-11-19T01:45:28;5.60;99.90
37874;DHT22;23709;48.078;11.684;2023-11-19T01:48:02;5.60;99.90
37874;DHT22;23709;48.078;11.684;2023-11-19T01:50:38;5.70;99.90
37874;DHT22;23709;48.078;11.684;2023-11-19T01:53:11;5.60;99.90
37874;DHT22;23709;48.078;11.684;2023-11-19T01:55:45;5.70;99.90
37874;DHT22;23709;48.078;11.684;2023-11-19T01:58:19;5.70;99.90
37874;DHT22;23709;48.078;11.684;2023-11-19T02:00:51;5.70;99.90
37874;DHT22;23709;48.078;11.684;2023-11-19T02:03:25;5.80;99.90
37874;DHT22;23709;48.078;11.684;2023-11-19T02:06:02;5.80;99.90
37874;DHT22;23709;48.078;11.684;2023-11-19T02:08:35;5.80;99.90
37874;DHT22;23709;48.078;11.684;2023-11-19T02:11:07;5.80;99.90
37874;DHT22;23709;48.078;11.684;2023-11-19T02:13:40;5.80;99.90
37874;DHT22;23709;48.078;11.684;2023-11-19T02:16:13;5.80;99.90
37874;DHT22;23709;48.078;11.684;2023-11-19T02:18:47;5.80;99.90
37874;DHT22;23709;48.078;11.684;2023-11-19T02:21:19;5.90;99.90
37874;DHT22;23709;48.078;11.684;2023-11-19T02:23:52;5.90;99.90
37874;DHT22;23709;48.078;11.684;2023-11-19T02:26:29;6.00;99.90
37874;DHT22;23709;48.078;11.684;2023-11-19T02:29:05;5.90;99.90
37874;DHT22;23709;48.078;11.684;2023-11-19T02:31:39;5.90;99.90
37874;DHT22;23709;48.078;11.684;2023-11-19T02:34:12;6.00;99.90
37874;DHT22;23709;48.078;11.684;2023-11-19T02:36:45;6.00;99.90
37874;DHT22;23709;48.078;11.684;2023-11-19T02:39:19;6.10;99.90
37874;DHT22;23709;48.078;11.684;2023-11-19T02:41:53;6.10;99.90
37874;DHT22;23709;48.078;11.684;2023-11-19T02:44:25;6.20;99.90
37874;DHT22;23709;48.078;11.684;2023-11-19T02:47:04;6.30;99.90
37874;DHT22;23709;48.078;11.684;2023-11-19T02:49:37;6.40;99.90
37874;DHT22;23709;48.078;11.684;2023-11-19T02:52:09;6.40;99.90
37874;DHT22;23709;48.078;11.684;2023-11-19T02:54:43;6.50;99.90
37874;DHT22;23709;48.078;11.684;2023-11-19T02:57:16;6.50;99.90
37874;DHT22;23709;48.078;11.684;2023-11-19T02:59:53;6.60;99.90
37874;DHT22;23709;48.078;11.684;2023-11-19T03:02:28;6.70;99.90
37874;DHT22;23709;48.078;11.684;2023-11-19T03:05:07;6.70;99.90
37874;DHT22;23709;48.078;11.684;2023-11-19T03:07:44;6.80;99.90
37874;DHT22;23709;48.078;11.684;2023-11-19T03:10:16;6.90;99.90
37874;DHT22;23709;48.078;11.684;2023-11-19T03:12:48;7.00;99.90
37874;DHT22;23709;48.078;11.684;2023-11-19T03:15:20;7.00;99.90
37874;DHT22;23709;48.078;11.684;2023-11-19T03:17:53;7.10;99.90
37874;DHT22;23709;48.078;11.684;2023-11-19T03:20:26;7.10;99.90
37874;DHT22;23709;48.078;11.684;2023-11-19T03:23:00;7.20;99.90
37874;DHT22;23709;48.078;11.684;2023-11-19T03:25:35;7.20;99.90
37874;DHT22;23709;48.078;11.684;2023-11-19T03:28:09;7.20;99.90
37874;DHT22;23709;48.078;11.684;2023-11-19T03:30:41;7.20;99.90
37874;DHT22;23709;48.078;11.684;2023-11-19T03:33:13;7.30;99.90
37874;DHT22;23709;48.078;11.684;2023-11-19T03:35:45;7.30;99.90
37874;DHT22;23709;48.078;11.684;2023-11-19T03:38:18;7.40;99.90
37874;DHT22;23709;48.078;11.684;2023-11-19T03:40:51;7.40;99.90
37874;DHT22;23709;48.078;11.684;2023-11-19T03:43:23;7.40;99.90
37874;DHT22;23709;48.078;11.684;2023-11-19T03:45:55;7.40;99.90
37874;DHT22;23709;48.078;11.684;2023-11-19T03:48:28;7.50;99.90
37874;DHT22;23709;48.078;11.684;2023-11-19T03:51:00;7.50;99.90
37874;DHT22;23709;48.078;11.684;2023-11-19T03:53:33;7.50;99.90
37874;DHT22;23709;48.078;11.684;2023-11-19T03:56:06;7.60;99.90
37874;DHT22;23709;48.078;11.684;2023-11-19T03:58:41;7.60;99.90
37874;DHT22;23709;48.078;11.684;2023-11-19T04:01:14;7.60;99.90
37874;DHT22;23709;48.078;11.684;2023-11-19T04:03:47;7.60;99.90
37874;DHT22;23709;48.078;11.684;2023-11-19T04:06:23;7.60;99.90
37874;DHT22;23709;48.078;11.684;2023-11-19T04:08:56;7.70;99.90
37874;DHT22;23709;48.078;11.684;2023-11-19T04:11:28;7.80;99.90
37874;DHT22;23709;48.078;11.684;2023-11-19T04:14:01;7.80;99.90
37874;DHT22;23709;48.078;11.684;2023-11-19T04:16:33;7.90;99.90
37874;DHT22;23709;48.078;11.684;2023-11-19T04:19:06;8.00;99.90
37874;DHT22;23709;48.078;11.684;2023-11-19T04:21:40;8.00;99.90
37874;DHT22;23709;48.078;11.684;2023-11-19T04:24:15;8.00;99.90
37874;DHT22;23709;48.078;11.684;2023-11-19T04:26:48;8.10;99.90
37874;DHT22;23709;48.078;11.684;2023-11-19T04:29:20;8.00;99.90
37874;DHT22;23709;48.078;11.684;2023-11-19T04:31:52;8.00;99.90
37874;DHT22;23709;48.078;11.684;2023-11-19T04:34:26;8.00;99.90
37874;DHT22;23709;48.078;11.684;2023-11-19T04:36:58;8.00;99.90
37874;DHT22;23709;48.078;11.684;2023-11-19T04:39:44;8.00;99.90
37874;DHT22;23709;48.078;11.684;2023-11-19T04:42:18;8.00;99.90
37874;DHT22;23709;48.078;11.684;2023-11-19T04:44:52;8.10;99.90
37874;DHT22;23709;48.078;11.684;2023-11-19T04:47:24;8.10;99.90
37874;DHT22;23709;48.078;11.684;2023-11-19T04:49:57;8.10;99.90
37874;DHT22;23709;48.078;11.684;2023-11-19T04:52:29;8.10;99.90
37874;DHT22;23709;48.078;11.684;2023-11-19T04:55:02;8.20;99.90
37874;DHT22;23709;48.078;11.684;2023-11-19T04:57:34;8.30;99.90
37874;DHT22;23709;48.078;11.684;2023-11-19T05:00:07;8.30;99.90
37874;DHT22;23709;48.078;11.684;2023-11-19T05:02:42;8.50;99.90
37874;DHT22;23709;48.078;11.684;2023-11-19T05:05:16;8.60;99.90
37874;DHT22;23709;48.078;11.684;2023-11-19T05:07:49;8.70;99.90
37874;DHT22;23709;48.078;11.684;2023-11-19T05:10:21;8.90;99.90
37874;DHT22;23709;48.078;11.684;2023-11-19T05:12:54;8.90;99.90
37874;DHT22;23709;48.078;11.684;2023-11-19T05:15:28;9.10;99.90
37874;DHT22;23709;48.078;11.684;2023-11-19T05:18:00;9.10;99.90
37874;DHT22;23709;48.078;11.684;2023-11-19T05:20:32;9.20;99.90
37874;DHT22;23709;48.078;11.684;2023-11-19T05:23:05;9.30;99.90
37874;DHT22;23709;48.078;11.684;2023-11-19T05:25:37;9.40;99.90
37874;DHT22;23709;48.078;11.684;2023-11-19T05:28:10;9.40;99.90
37874;DHT22;23709;48.078;11.684;2023-11-19T05:30:42;9.50;99.90
37874;DHT22;23709;48.078;11.684;2023-11-19T05:33:15;9.60;99.90
37874;DHT22;23709;48.078;11.684;2023-11-19T05:35:47;9.60;99.90
37874;DHT22;23709;48.078;11.684;2023-11-19T05:38:20;9.60;99.90
37874;DHT22;23709;48.078;11.684;2023-11-19T05:40:53;9.70;99.90
37874;DHT22;23709;48.078;11.684;2023-11-19T05:43:25;9.60;99.90
37874;DHT22;23709;48.078;11.684;2023-11-19T05:45:58;9.60;99.90
37874;DHT22;23709;48.078;11.684;2023-11-19T05:48:30;9.60;99.90
37874;DHT22;23709;48.078;11.684;2023-11-19T05:51:03;9.60;99.90
37874;DHT22;23709;48.078;11.684;2023-11-19T05:53:35;9.60;99.90
37874;DHT22;23709;48.078;11.684;2023-11-19T05:56:08;9.70;99.90
37874;DHT22;23709;48.078;11.684;2023-11-19T05:58:41;9.70;99.90
37874;DHT22;23709;48.078;11.684;2023-11-19T06:01:16;9.70;99.90
37874;DHT22;23709;48.078;11.684;2023-11-19T06:03:49;9.70;99.90
37874;DHT22;23709;48.078;11.684;2023-11-19T06:06:23;9.70;99.90
37874;DHT22;23709;48.078;11.684;2023-11-19T06:08:56;9.80;99.90
37874;DHT22;23709;48.078;11.684;2023-11-19T06:11:28;9.80;99.90
37874;DHT22;23709;48.078;11.684;2023-11-19T06:14:01;9.80;99.90
37874;DHT22;23709;48.078;11.684;2023-11-19T06:16:35;9.90;99.90
37874;DHT22;23709;48.078;11.684;2023-11-19T06:19:09;9.90;99.90
37874;DHT22;23709;48.078;11.684;2023-11-19T06:21:42;9.90;99.90
37874;DHT22;23709;48.078;11.684;2023-11-19T06:24:15;9.80;99.90
37874;DHT22;23709;48.078;11.684;2023-11-19T06:26:47;9.80;99.90
37874;DHT22;23709;48.078;11.684;2023-11-19T06:29:20;9.80;99.90
37874;DHT22;23709;48.078;11.684;2023-11-19T06:31:52;9.80;99.90
37874;DHT22;23709;48.078;11.684;2023-11-19T06:34:24;9.80;99.90
37874;DHT22;23709;48.078;11.684;2023-11-19T06:36:56;9.90;99.90
37874;DHT22;23709;48.078;11.684;2023-11-19T06:39:29;9.90;99.90
37874;DHT22;23709;48.078;11.684;2023-11-19T06:42:01;10.00;99.90
37874;DHT22;23709;48.078;11.684;2023-11-19T06:44:34;10.00;99.90
37874;DHT22;23709;48.078;11.684;2023-11-19T06:47:06;10.00;99.90
37874;DHT22;23709;48.078;11.684;2023-11-19T06:49:39;10.00;99.90
37874;DHT22;23709;48.078;11.684;2023-11-19T06:52:11;10.00;99.90
37874;DHT22;23709;48.078;11.684;2023-11-19T06:54:43;10.00;99.90
37874;DHT22;23709;48.078;11.684;2023-11-19T06:57:17;10.10;99.90
37874;DHT22;23709;48.078;11.684;2023-11-19T06:59:50;10.20;99.90
37874;DHT22;23709;48.078;11.684;2023-11-19T07:02:22;10.20;99.90
37874;DHT22;23709;48.078;11.684;2023-11-19T07:04:58;10.20;99.90
37874;DHT22;23709;48.078;11.684;2023-11-19T07:07:33;10.20;99.90
37874;DHT22;23709;48.078;11.684;2023-11-19T07:10:06;10.30;99.90
37874;DHT22;23709;48.078;11.684;2023-11-19T07:12:41;10.30;99.90
37874;DHT22;23709;48.078;11.684;2023-11-19T07:15:14;10.30;99.90
37874;DHT22;23709;48.078;11.684;2023-11-19T07:17:46;10.40;99.90
37874;DHT22;23709;48.078;11.684;2023-11-19T07:20:33;10.40;99.90
37874;DHT22;23709;48.078;11.684;2023-11-19T07:23:05;10.40;99.90
37874;DHT22;23709;48.078;11.684;2023-11-19T07:25:38;10.40;99.90
37874;DHT22;23709;48.078;11.684;2023-11-19T07:28:11;10.50;99.90
37874;DHT22;23709;48.078;11.684;2023-11-19T07:30:43;10.50;99.90
37874;DHT22;23709;48.078;11.684;2023-11-19T07:33:15;10.60;99.90
37874;DHT22;23709;48.078;11.684;2023-11-19T07:35:48;10.60;99.90
37874;DHT22;23709;48.078;11.684;2023-11-19T07:38:20;10.60;99.90
37874;DHT22;23709;48.078;11.684;2023-11-19T07:40:54;10.60;99.90
37874;DHT22;23709;48.078;11.684;2023-11-19T07:43:28;10.70;99.90
37874;DHT22;23709;48.078;11.684;2023-11-19T07:46:01;10.60;99.90
37874;DHT22;23709;48.078;11.684;2023-11-19T07:48:33;10.70;99.90
37874;DHT22;23709;48.078;11.684;2023-11-19T07:51:07;10.80;99.90
37874;DHT22;23709;48.078;11.684;2023-11-19T07:53:40;10.90;99.90
37874;DHT22;23709;48.078;11.684;2023-11-19T07:56:13;10.70;99.90
37874;DHT22;23709;48.078;11.684;2023-11-19T07:58:45;10.80;99.90
37874;DHT22;23709;48.078;11.684;2023-11-19T08:01:18;10.80;99.90
37874;DHT22;23709;48.078;11.684;2023-11-19T08:03:50;10.70;99.90
37874;DHT22;23709;48.078;11.684;2023-11-19T08:06:26;10.80;99.90
37874;DHT22;23709;48.078;11.684;2023-11-19T08:08:58;10.90;99.90
37874;DHT22;23709;48.078;11.684;2023-11-19T08:11:32;10.80;99.90
37874;DHT22;23709;48.078;11.684;2023-11-19T08:14:04;10.80;99.90
37874;DHT22;23709;48.078;11.684;2023-11-19T08:16:38;10.80;99.90
37874;DHT22;23709;48.078;11.684;2023-11-19T08:19:10;10.90;99.90
37874;DHT22;23709;48.078;11.684;2023-11-19T08:21:43;10.90;99.90
37874;DHT22;23709;48.078;11.684;2023-11-19T08:24:15;10.90;99.90
37874;DHT22;23709;48.078;11.684;2023-11-19T08:26:47;10.90;99.90
37874;DHT22;23709;48.078;11.684;2023-11-19T08:29:34;10.90;99.90
37874;DHT22;23709;48.078;11.684;2023-11-19T08:32:06;11.00;99.90
37874;DHT22;23709;48.078;11.684;2023-11-19T08:34:39;10.90;99.90
37874;DHT22;23709;48.078;11.684;2023-11-19T08:37:11;11.00;99.90
37874;DHT22;23709;48.078;11.684;2023-11-19T08:39:44;11.00;99.90
37874;DHT22;23709;48.078;11.684;2023-11-19T08:42:19;11.10;99.90
37874;DHT22;23709;48.078;11.684;2023-11-19T08:44:51;11.10;99.90
37874;DHT22;23709;48.078;11.684;2023-11-19T08:47:26;11.10;99.90
37874;DHT22;23709;48.078;11.684;2023-11-19T08:49:59;11.10;99.90
37874;DHT22;23709;48.078;11.684;2023-11-19T08:52:34;11.10;99.90
37874;DHT22;23709;48.078;11.684;2023-11-19T08:55:07;11.20;99.90
37874;DHT22;23709;48.078;11.684;2023-11-19T08:57:39;11.20;99.90
37874;DHT22;23709;48.078;11.684;2023-11-19T09:00:12;11.30;99.90
37874;DHT22;23709;48.078;11.684;2023-11-19T09:02:46;11.30;99.90
37874;DHT22;23709;48.078;11.684;2023-11-19T09:05:19;11.50;99.90
37874;DHT22;23709;48.078;11.684;2023-11-19T09:07:52;11.50;99.90
37874;DHT22;23709;48.078;11.684;2023-11-19T09:10:25;11.40;99.90
37874;DHT22;23709;48.078;11.684;2023-11-19T09:12:57;11.40;99.90
37874;DHT22;23709;48.078;11.684;2023-11-19T09:15:30;11.40;99.90
37874;DHT22;23709;48.078;11.684;2023-11-19T09:18:03;11.30;99.90
37874;DHT22;23709;48.078;11.684;2023-11-19T09:20:36;11.40;99.90
37874;DHT22;23709;48.078;11.684;2023-11-19T09:23:11;11.40;99.90
37874;DHT22;23709;48.078;11.684;2023-11-19T09:25:44;11.30;99.90
37874;DHT22;23709;48.078;11.684;2023-11-19T09:28:17;11.30;99.90
37874;DHT22;23709;48.078;11.684;2023-11-19T09:30:49;11.40;99.90
37874;DHT22;23709;48.078;11.684;2023-11-19T09:33:22;11.30;99.90
37874;DHT22;23709;48.078;11.684;2023-11-19T09:35:54;11.40;99.90
37874;DHT22;23709;48.078;11.684;2023-11-19T09:38:27;11.50;99.90
37874;DHT22;23709;48.078;11.684;2023-11-19T09:40:59;11.60;99.90
37874;DHT22;23709;48.078;11.684;2023-11-19T09:43:34;11.60;99.90
37874;DHT22;23709;48.078;11.684;2023-11-19T09:46:13;11.60;99.90
37874;DHT22;23709;48.078;11.684;2023-11-19T09:48:47;11.70;99.90
37874;DHT22;23709;48.078;11.684;2023-11-19T09:51:25;11.70;99.90
37874;DHT22;23709;48.078;11.684;2023-11-19T09:53:57;11.70;99.90
37874;DHT22;23709;48.078;11.684;2023-11-19T09:56:30;11.60;99.90
37874;DHT22;23709;48.078;11.684;2023-11-19T09:59:03;11.70;99.90
37874;DHT22;23709;48.078;11.684;2023-11-19T10:01:36;11.70;99.90
37874;DHT22;23709;48.078;11.684;2023-11-19T10:04:10;11.70;99.90
37874;DHT22;23709;48.078;11.684;2023-11-19T10:06:44;11.80;99.90
37874;DHT22;23709;48.078;11.684;2023-11-19T10:09:17;11.90;99.90
37874;DHT22;23709;48.078;11.684;2023-11-19T10:11:49;11.90;99.90
37874;DHT22;23709;48.078;11.684;2023-11-19T10:14:23;12.10;99.90
37874;DHT22;23709;48.078;11.684;2023-11-19T10:16:56;12.10;99.90
37874;DHT22;23709;48.078;11.684;2023-11-19T10:19:29;12.20;99.90
37874;DHT22;23709;48.078;11.684;2023-11-19T10:22:04;12.20;99.90
37874;DHT22;23709;48.078;11.684;2023-11-19T10:24:36;12.20;99.90
37874;DHT22;23709;48.078;11.684;2023-11-19T10:27:17;12.30;99.90
37874;DHT22;23709;48.078;11.684;2023-11-19T10:29:50;12.40;99.90
37874;DHT22;23709;48.078;11.684;2023-11-19T10:32:22;12.40;99.90
37874;DHT22;23709;48.078;11.684;2023-11-19T10:35:07;12.50;99.90
37874;DHT22;23709;48.078;11.684;2023-11-19T10:37:40;12.60;99.90
37874;DHT22;23709;48.078;11.684;2023-11-19T10:40:13;12.70;99.90
37874;DHT22;23709;48.078;11.684;2023-11-19T10:42:46;12.80;99.90
37874;DHT22;23709;48.078;11.684;2023-11-19T10:45:23;12.90;99.90
37874;DHT22;23709;48.078;11.684;2023-11-19T10:48:00;13.00;99.90
37874;DHT22;23709;48.078;11.684;2023-11-19T10:50:36;13.20;99.90
37874;DHT22;23709;48.078;11.684;2023-11-19T10:53:11;13.30;99.90
37874;DHT22;23709;48.078;11.684;2023-11-19T10:55:47;13.60;99.90
37874;DHT22;23709;48.078;11.684;2023-11-19T10:58:20;13.80;99.90
